sensor_id;sensor_type;location;lat;lon;timestamp;P1;durP1;ratioP1;P2;durP2;ratioP2
22034;SDS011;11181;51.002;4.356;2023-04-24T00:01:02;22.83;;;10.27;;
22034;SDS011;11181;51.002;4.356;2023-04-24T00:03:33;17.73;;;10.63;;
22034;SDS011;11181;51.002;4.356;2023-04-24T00:06:00;15.33;;;10.23;;
22034;SDS011;11181;51.002;4.356;2023-04-24T00:08:27;17.60;;;10.50;;
22034;SDS011;11181;51.002;4.356;2023-04-24T00:10:54;16.43;;;9.40;;
22034;SDS011;11181;51.002;4.356;2023-04-24T00:13:21;23.87;;;9.97;;
22034;SDS011;11181;51.002;4.356;2023-04-24T00:15:48;17.90;;;10.47;;
22034;SDS011;11181;51.002;4.356;2023-04-24T00:18:15;18.03;;;10.40;;
22034;SDS011;11181;51.002;4.356;2023-04-24T00:20:43;14.57;;;9.77;;
22034;SDS011;11181;51.002;4.356;2023-04-24T00:23:11;19.17;;;10.73;;
22034;SDS011;11181;51.002;4.356;2023-04-24T00:25:38;20.73;;;10.50;;
22034;SDS011;11181;51.002;4.356;2023-04-24T00:28:05;20.47;;;12.30;;
22034;SDS011;11181;51.002;4.356;2023-04-24T00:30:32;18.57;;;10.40;;
22034;SDS011;11181;51.002;4.356;2023-04-24T00:32:59;20.20;;;9.87;;
22034;SDS011;11181;51.002;4.356;2023-04-24T00:35:26;25.20;;;10.90;;
22034;SDS011;11181;51.002;4.356;2023-04-24T00:37:54;21.20;;;11.50;;
22034;SDS011;11181;51.002;4.356;2023-04-24T00:40:21;17.03;;;11.00;;
22034;SDS011;11181;51.002;4.356;2023-04-24T00:42:48;19.10;;;10.57;;
22034;SDS011;11181;51.002;4.356;2023-04-24T00:45:15;16.43;;;10.07;;
22034;SDS011;11181;51.002;4.356;2023-04-24T00:47:43;18.73;;;11.20;;
22034;SDS011;11181;51.002;4.356;2023-04-24T00:50:11;18.17;;;11.30;;
22034;SDS011;11181;51.002;4.356;2023-04-24T00:52:40;21.37;;;12.20;;
22034;SDS011;11181;51.002;4.356;2023-04-24T00:55:08;20.30;;;10.83;;
22034;SDS011;11181;51.002;4.356;2023-04-24T00:57:35;20.30;;;10.87;;
22034;SDS011;11181;51.002;4.356;2023-04-24T01:00:03;20.70;;;10.60;;
22034;SDS011;11181;51.002;4.356;2023-04-24T01:02:35;19.60;;;10.90;;
22034;SDS011;11181;51.002;4.356;2023-04-24T01:05:05;19.47;;;11.93;;
22034;SDS011;11181;51.002;4.356;2023-04-24T01:07:33;18.17;;;11.13;;
22034;SDS011;11181;51.002;4.356;2023-04-24T01:10:00;17.20;;;10.80;;
22034;SDS011;11181;51.002;4.356;2023-04-24T01:12:29;16.30;;;9.80;;
22034;SDS011;11181;51.002;4.356;2023-04-24T01:14:56;16.80;;;10.57;;
22034;SDS011;11181;51.002;4.356;2023-04-24T01:17:24;16.27;;;11.27;;
22034;SDS011;11181;51.002;4.356;2023-04-24T01:19:50;17.17;;;10.43;;
22034;SDS011;11181;51.002;4.356;2023-04-24T01:22:20;19.87;;;10.77;;
22034;SDS011;11181;51.002;4.356;2023-04-24T01:24:47;21.43;;;11.03;;
22034;SDS011;11181;51.002;4.356;2023-04-24T01:27:14;19.97;;;10.43;;
22034;SDS011;11181;51.002;4.356;2023-04-24T01:29:41;16.43;;;9.37;;
22034;SDS011;11181;51.002;4.356;2023-04-24T01:32:08;15.40;;;9.77;;
22034;SDS011;11181;51.002;4.356;2023-04-24T01:34:35;16.30;;;9.63;;
22034;SDS011;11181;51.002;4.356;2023-04-24T01:37:02;18.40;;;10.07;;
22034;SDS011;11181;51.002;4.356;2023-04-24T01:39:31;15.77;;;10.20;;
22034;SDS011;11181;51.002;4.356;2023-04-24T01:41:59;16.20;;;9.00;;
22034;SDS011;11181;51.002;4.356;2023-04-24T01:44:27;13.93;;;8.23;;
22034;SDS011;11181;51.002;4.356;2023-04-24T01:46:54;13.23;;;8.30;;
22034;SDS011;11181;51.002;4.356;2023-04-24T01:49:21;10.43;;;8.27;;
22034;SDS011;11181;51.002;4.356;2023-04-24T01:51:48;12.73;;;7.83;;
22034;SDS011;11181;51.002;4.356;2023-04-24T01:54:15;14.70;;;8.63;;
22034;SDS011;11181;51.002;4.356;2023-04-24T01:56:43;13.13;;;8.30;;
22034;SDS011;11181;51.002;4.356;2023-04-24T01:59:11;14.73;;;8.73;;
22034;SDS011;11181;51.002;4.356;2023-04-24T02:01:39;10.73;;;7.30;;
22034;SDS011;11181;51.002;4.356;2023-04-24T02:04:07;11.83;;;6.53;;
22034;SDS011;11181;51.002;4.356;2023-04-24T02:06:34;12.03;;;5.97;;
22034;SDS011;11181;51.002;4.356;2023-04-24T02:09:01;9.80;;;6.63;;
22034;SDS011;11181;51.002;4.356;2023-04-24T02:11:29;10.37;;;5.70;;
22034;SDS011;11181;51.002;4.356;2023-04-24T02:13:57;10.67;;;6.47;;
22034;SDS011;11181;51.002;4.356;2023-04-24T02:16:24;9.10;;;5.90;;
22034;SDS011;11181;51.002;4.356;2023-04-24T02:18:51;9.93;;;6.20;;
22034;SDS011;11181;51.002;4.356;2023-04-24T02:21:18;7.63;;;5.67;;
22034;SDS011;11181;51.002;4.356;2023-04-24T02:23:45;18.93;;;7.63;;
22034;SDS011;11181;51.002;4.356;2023-04-24T02:26:12;9.13;;;6.23;;
22034;SDS011;11181;51.002;4.356;2023-04-24T02:28:39;8.80;;;5.57;;
22034;SDS011;11181;51.002;4.356;2023-04-24T02:31:07;8.63;;;6.53;;
22034;SDS011;11181;51.002;4.356;2023-04-24T02:33:34;12.10;;;7.37;;
22034;SDS011;11181;51.002;4.356;2023-04-24T02:36:01;10.77;;;7.40;;
22034;SDS011;11181;51.002;4.356;2023-04-24T02:38:28;13.53;;;9.00;;
22034;SDS011;11181;51.002;4.356;2023-04-24T02:40:55;11.10;;;7.50;;
22034;SDS011;11181;51.002;4.356;2023-04-24T02:43:22;12.97;;;7.17;;
22034;SDS011;11181;51.002;4.356;2023-04-24T02:45:49;14.60;;;7.77;;
22034;SDS011;11181;51.002;4.356;2023-04-24T02:48:17;13.20;;;7.43;;
22034;SDS011;11181;51.002;4.356;2023-04-24T02:50:45;9.70;;;8.10;;
22034;SDS011;11181;51.002;4.356;2023-04-24T02:53:13;10.83;;;8.20;;
22034;SDS011;11181;51.002;4.356;2023-04-24T02:55:39;13.10;;;7.63;;
22034;SDS011;11181;51.002;4.356;2023-04-24T02:58:06;10.43;;;7.63;;
22034;SDS011;11181;51.002;4.356;2023-04-24T03:00:33;12.70;;;8.37;;
22034;SDS011;11181;51.002;4.356;2023-04-24T03:03:00;11.73;;;8.00;;
22034;SDS011;11181;51.002;4.356;2023-04-24T03:05:29;11.17;;;7.90;;
22034;SDS011;11181;51.002;4.356;2023-04-24T03:07:56;11.53;;;8.20;;
22034;SDS011;11181;51.002;4.356;2023-04-24T03:10:23;11.30;;;7.53;;
22034;SDS011;11181;51.002;4.356;2023-04-24T03:12:50;12.30;;;8.83;;
22034;SDS011;11181;51.002;4.356;2023-04-24T03:15:17;14.10;;;8.97;;
22034;SDS011;11181;51.002;4.356;2023-04-24T03:17:44;9.83;;;6.63;;
22034;SDS011;11181;51.002;4.356;2023-04-24T03:20:11;12.80;;;7.57;;
22034;SDS011;11181;51.002;4.356;2023-04-24T03:22:40;12.27;;;7.17;;
22034;SDS011;11181;51.002;4.356;2023-04-24T03:25:07;9.63;;;6.90;;
22034;SDS011;11181;51.002;4.356;2023-04-24T03:27:34;12.23;;;7.00;;
22034;SDS011;11181;51.002;4.356;2023-04-24T03:30:02;11.17;;;7.17;;
22034;SDS011;11181;51.002;4.356;2023-04-24T03:32:29;11.13;;;7.20;;
22034;SDS011;11181;51.002;4.356;2023-04-24T03:34:57;11.47;;;6.67;;
22034;SDS011;11181;51.002;4.356;2023-04-24T03:37:24;8.47;;;5.80;;
22034;SDS011;11181;51.002;4.356;2023-04-24T03:39:52;11.03;;;6.93;;
22034;SDS011;11181;51.002;4.356;2023-04-24T03:42:19;8.23;;;6.40;;
22034;SDS011;11181;51.002;4.356;2023-04-24T03:44:46;10.33;;;6.80;;
22034;SDS011;11181;51.002;4.356;2023-04-24T03:47:13;10.83;;;7.40;;
22034;SDS011;11181;51.002;4.356;2023-04-24T03:49:40;11.37;;;6.70;;
22034;SDS011;11181;51.002;4.356;2023-04-24T03:52:07;8.60;;;6.17;;
22034;SDS011;11181;51.002;4.356;2023-04-24T03:54:34;10.23;;;6.53;;
22034;SDS011;11181;51.002;4.356;2023-04-24T03:57:02;7.23;;;5.87;;
22034;SDS011;11181;51.002;4.356;2023-04-24T03:59:29;11.63;;;6.20;;
22034;SDS011;11181;51.002;4.356;2023-04-24T04:01:56;9.10;;;6.50;;
22034;SDS011;11181;51.002;4.356;2023-04-24T04:04:23;9.83;;;6.83;;
22034;SDS011;11181;51.002;4.356;2023-04-24T04:06:50;9.73;;;6.37;;
22034;SDS011;11181;51.002;4.356;2023-04-24T04:09:18;8.90;;;6.33;;
22034;SDS011;11181;51.002;4.356;2023-04-24T04:11:45;9.50;;;5.73;;
22034;SDS011;11181;51.002;4.356;2023-04-24T04:14:13;9.47;;;6.50;;
22034;SDS011;11181;51.002;4.356;2023-04-24T04:16:40;8.17;;;5.57;;
22034;SDS011;11181;51.002;4.356;2023-04-24T04:19:07;8.97;;;6.07;;
22034;SDS011;11181;51.002;4.356;2023-04-24T04:21:34;13.03;;;6.93;;
22034;SDS011;11181;51.002;4.356;2023-04-24T04:24:00;11.37;;;7.50;;
22034;SDS011;11181;51.002;4.356;2023-04-24T04:26:27;14.00;;;8.57;;
22034;SDS011;11181;51.002;4.356;2023-04-24T04:28:57;18.30;;;10.30;;
22034;SDS011;11181;51.002;4.356;2023-04-24T04:31:27;16.10;;;9.13;;
22034;SDS011;11181;51.002;4.356;2023-04-24T04:33:53;10.03;;;6.63;;
22034;SDS011;11181;51.002;4.356;2023-04-24T04:36:20;8.47;;;5.90;;
22034;SDS011;11181;51.002;4.356;2023-04-24T04:38:48;10.00;;;5.93;;
22034;SDS011;11181;51.002;4.356;2023-04-24T04:41:15;7.77;;;6.20;;
22034;SDS011;11181;51.002;4.356;2023-04-24T04:43:43;13.83;;;6.33;;
22034;SDS011;11181;51.002;4.356;2023-04-24T04:46:11;14.60;;;7.03;;
22034;SDS011;11181;51.002;4.356;2023-04-24T04:48:39;12.27;;;7.47;;
22034;SDS011;11181;51.002;4.356;2023-04-24T04:51:06;13.10;;;7.83;;
22034;SDS011;11181;51.002;4.356;2023-04-24T04:53:33;14.57;;;8.77;;
22034;SDS011;11181;51.002;4.356;2023-04-24T04:56:00;17.87;;;8.83;;
22034;SDS011;11181;51.002;4.356;2023-04-24T04:58:27;12.37;;;8.93;;
22034;SDS011;11181;51.002;4.356;2023-04-24T05:00:54;14.87;;;8.50;;
22034;SDS011;11181;51.002;4.356;2023-04-24T05:03:22;13.77;;;8.30;;
22034;SDS011;11181;51.002;4.356;2023-04-24T05:05:50;15.47;;;8.53;;
22034;SDS011;11181;51.002;4.356;2023-04-24T05:08:17;16.00;;;8.83;;
22034;SDS011;11181;51.002;4.356;2023-04-24T05:10:44;12.40;;;7.03;;
22034;SDS011;11181;51.002;4.356;2023-04-24T05:13:11;13.47;;;9.03;;
22034;SDS011;11181;51.002;4.356;2023-04-24T05:15:38;14.67;;;8.53;;
22034;SDS011;11181;51.002;4.356;2023-04-24T05:18:05;12.20;;;8.30;;
22034;SDS011;11181;51.002;4.356;2023-04-24T05:20:32;17.53;;;9.17;;
22034;SDS011;11181;51.002;4.356;2023-04-24T05:23:00;12.93;;;7.67;;
22034;SDS011;11181;51.002;4.356;2023-04-24T05:25:27;11.70;;;7.80;;
22034;SDS011;11181;51.002;4.356;2023-04-24T05:27:57;13.10;;;8.33;;
22034;SDS011;11181;51.002;4.356;2023-04-24T05:30:24;13.13;;;8.50;;
22034;SDS011;11181;51.002;4.356;2023-04-24T05:32:51;14.40;;;8.23;;
22034;SDS011;11181;51.002;4.356;2023-04-24T05:35:17;14.37;;;8.20;;
22034;SDS011;11181;51.002;4.356;2023-04-24T05:37:44;14.47;;;8.43;;
22034;SDS011;11181;51.002;4.356;2023-04-24T05:40:13;12.80;;;7.87;;
22034;SDS011;11181;51.002;4.356;2023-04-24T05:42:39;13.13;;;8.03;;
22034;SDS011;11181;51.002;4.356;2023-04-24T05:45:07;13.83;;;8.77;;
22034;SDS011;11181;51.002;4.356;2023-04-24T05:47:36;13.23;;;8.50;;
22034;SDS011;11181;51.002;4.356;2023-04-24T05:50:03;11.67;;;7.63;;
22034;SDS011;11181;51.002;4.356;2023-04-24T05:52:31;14.00;;;8.80;;
22034;SDS011;11181;51.002;4.356;2023-04-24T05:54:58;16.17;;;7.40;;
22034;SDS011;11181;51.002;4.356;2023-04-24T05:57:26;13.50;;;7.67;;
22034;SDS011;11181;51.002;4.356;2023-04-24T05:59:53;15.43;;;8.17;;
22034;SDS011;11181;51.002;4.356;2023-04-24T06:02:20;12.47;;;8.77;;
22034;SDS011;11181;51.002;4.356;2023-04-24T06:04:48;18.03;;;10.13;;
22034;SDS011;11181;51.002;4.356;2023-04-24T06:07:14;16.83;;;10.33;;
22034;SDS011;11181;51.002;4.356;2023-04-24T06:09:42;18.50;;;9.13;;
22034;SDS011;11181;51.002;4.356;2023-04-24T06:12:09;14.87;;;9.67;;
22034;SDS011;11181;51.002;4.356;2023-04-24T06:14:37;16.90;;;9.33;;
22034;SDS011;11181;51.002;4.356;2023-04-24T06:17:04;14.63;;;9.50;;
22034;SDS011;11181;51.002;4.356;2023-04-24T06:19:31;19.73;;;10.23;;
22034;SDS011;11181;51.002;4.356;2023-04-24T06:21:58;15.90;;;9.33;;
22034;SDS011;11181;51.002;4.356;2023-04-24T06:24:27;14.53;;;9.57;;
22034;SDS011;11181;51.002;4.356;2023-04-24T06:26:54;14.63;;;9.83;;
22034;SDS011;11181;51.002;4.356;2023-04-24T06:29:21;18.77;;;9.10;;
22034;SDS011;11181;51.002;4.356;2023-04-24T06:31:50;20.27;;;10.83;;
22034;SDS011;11181;51.002;4.356;2023-04-24T06:34:17;16.80;;;9.83;;
22034;SDS011;11181;51.002;4.356;2023-04-24T06:36:44;16.60;;;9.67;;
22034;SDS011;11181;51.002;4.356;2023-04-24T06:39:12;17.17;;;9.90;;
22034;SDS011;11181;51.002;4.356;2023-04-24T06:41:39;19.97;;;10.40;;
22034;SDS011;11181;51.002;4.356;2023-04-24T06:44:07;24.20;;;10.47;;
22034;SDS011;11181;51.002;4.356;2023-04-24T06:46:34;23.87;;;11.30;;
22034;SDS011;11181;51.002;4.356;2023-04-24T06:49:03;21.47;;;11.60;;
22034;SDS011;11181;51.002;4.356;2023-04-24T06:51:30;17.80;;;11.13;;
22034;SDS011;11181;51.002;4.356;2023-04-24T06:53:58;18.03;;;11.30;;
22034;SDS011;11181;51.002;4.356;2023-04-24T06:56:25;21.13;;;11.03;;
22034;SDS011;11181;51.002;4.356;2023-04-24T06:58:53;27.03;;;12.47;;
22034;SDS011;11181;51.002;4.356;2023-04-24T07:01:20;23.30;;;12.07;;
22034;SDS011;11181;51.002;4.356;2023-04-24T07:03:47;19.53;;;11.53;;
22034;SDS011;11181;51.002;4.356;2023-04-24T07:06:16;20.50;;;12.10;;
22034;SDS011;11181;51.002;4.356;2023-04-24T07:08:43;21.37;;;10.90;;
22034;SDS011;11181;51.002;4.356;2023-04-24T07:11:11;17.40;;;10.33;;
22034;SDS011;11181;51.002;4.356;2023-04-24T07:13:38;24.60;;;13.13;;
22034;SDS011;11181;51.002;4.356;2023-04-24T07:16:06;22.33;;;12.73;;
22034;SDS011;11181;51.002;4.356;2023-04-24T07:18:33;19.77;;;11.00;;
22034;SDS011;11181;51.002;4.356;2023-04-24T07:21:01;20.13;;;11.20;;
22034;SDS011;11181;51.002;4.356;2023-04-24T07:23:30;18.67;;;10.43;;
22034;SDS011;11181;51.002;4.356;2023-04-24T07:25:57;19.60;;;11.63;;
22034;SDS011;11181;51.002;4.356;2023-04-24T07:28:24;18.57;;;10.10;;
22034;SDS011;11181;51.002;4.356;2023-04-24T07:30:51;20.17;;;10.83;;
22034;SDS011;11181;51.002;4.356;2023-04-24T07:33:19;17.43;;;8.47;;
22034;SDS011;11181;51.002;4.356;2023-04-24T07:35:46;16.70;;;8.83;;
22034;SDS011;11181;51.002;4.356;2023-04-24T07:38:13;16.37;;;9.20;;
22034;SDS011;11181;51.002;4.356;2023-04-24T07:40:41;12.50;;;8.60;;
22034;SDS011;11181;51.002;4.356;2023-04-24T07:43:08;18.07;;;9.33;;
22034;SDS011;11181;51.002;4.356;2023-04-24T07:45:35;26.90;;;11.70;;
22034;SDS011;11181;51.002;4.356;2023-04-24T07:48:02;15.67;;;8.70;;
22034;SDS011;11181;51.002;4.356;2023-04-24T07:50:29;17.13;;;8.17;;
22034;SDS011;11181;51.002;4.356;2023-04-24T07:52:57;15.53;;;7.37;;
22034;SDS011;11181;51.002;4.356;2023-04-24T07:55:24;14.27;;;6.83;;
22034;SDS011;11181;51.002;4.356;2023-04-24T07:57:52;10.97;;;5.93;;
22034;SDS011;11181;51.002;4.356;2023-04-24T08:00:19;10.57;;;5.07;;
22034;SDS011;11181;51.002;4.356;2023-04-24T08:02:46;13.90;;;4.40;;
22034;SDS011;11181;51.002;4.356;2023-04-24T08:05:13;6.67;;;4.33;;
22034;SDS011;11181;51.002;4.356;2023-04-24T08:07:40;13.13;;;4.27;;
22034;SDS011;11181;51.002;4.356;2023-04-24T08:10:09;8.50;;;4.00;;
22034;SDS011;11181;51.002;4.356;2023-04-24T08:12:36;10.03;;;3.97;;
22034;SDS011;11181;51.002;4.356;2023-04-24T08:15:05;9.27;;;3.90;;
22034;SDS011;11181;51.002;4.356;2023-04-24T08:17:33;13.73;;;5.50;;
22034;SDS011;11181;51.002;4.356;2023-04-24T08:20:00;14.67;;;4.90;;
22034;SDS011;11181;51.002;4.356;2023-04-24T08:22:27;7.97;;;4.57;;
22034;SDS011;11181;51.002;4.356;2023-04-24T08:24:54;11.87;;;4.33;;
22034;SDS011;11181;51.002;4.356;2023-04-24T08:27:22;10.27;;;4.60;;
22034;SDS011;11181;51.002;4.356;2023-04-24T08:29:49;7.00;;;3.77;;
22034;SDS011;11181;51.002;4.356;2023-04-24T08:32:17;8.73;;;4.23;;
22034;SDS011;11181;51.002;4.356;2023-04-24T08:34:44;9.03;;;4.40;;
22034;SDS011;11181;51.002;4.356;2023-04-24T08:37:11;7.63;;;3.97;;
22034;SDS011;11181;51.002;4.356;2023-04-24T08:39:38;10.17;;;4.50;;
22034;SDS011;11181;51.002;4.356;2023-04-24T08:42:05;11.43;;;4.03;;
22034;SDS011;11181;51.002;4.356;2023-04-24T08:44:34;12.60;;;4.13;;
22034;SDS011;11181;51.002;4.356;2023-04-24T08:47:02;11.07;;;3.80;;
22034;SDS011;11181;51.002;4.356;2023-04-24T08:49:30;10.70;;;3.30;;
22034;SDS011;11181;51.002;4.356;2023-04-24T08:51:57;7.63;;;3.33;;
22034;SDS011;11181;51.002;4.356;2023-04-24T08:54:25;7.27;;;3.60;;
22034;SDS011;11181;51.002;4.356;2023-04-24T08:56:53;10.63;;;3.43;;
22034;SDS011;11181;51.002;4.356;2023-04-24T08:59:26;9.40;;;4.33;;
22034;SDS011;11181;51.002;4.356;2023-04-24T09:01:53;8.20;;;4.23;;
22034;SDS011;11181;51.002;4.356;2023-04-24T09:04:22;13.93;;;4.90;;
22034;SDS011;11181;51.002;4.356;2023-04-24T09:06:51;13.20;;;4.77;;
22034;SDS011;11181;51.002;4.356;2023-04-24T09:09:21;14.23;;;4.43;;
22034;SDS011;11181;51.002;4.356;2023-04-24T09:11:49;11.03;;;5.70;;
22034;SDS011;11181;51.002;4.356;2023-04-24T09:14:18;8.33;;;4.83;;
22034;SDS011;11181;51.002;4.356;2023-04-24T09:16:45;7.07;;;4.00;;
22034;SDS011;11181;51.002;4.356;2023-04-24T09:19:12;6.17;;;3.83;;
22034;SDS011;11181;51.002;4.356;2023-04-24T09:21:39;8.83;;;3.97;;
22034;SDS011;11181;51.002;4.356;2023-04-24T09:24:16;9.13;;;4.00;;
22034;SDS011;11181;51.002;4.356;2023-04-24T09:26:47;11.70;;;5.10;;
22034;SDS011;11181;51.002;4.356;2023-04-24T09:29:15;11.13;;;4.70;;
22034;SDS011;11181;51.002;4.356;2023-04-24T09:31:43;8.27;;;3.87;;
22034;SDS011;11181;51.002;4.356;2023-04-24T09:34:11;7.17;;;3.80;;
22034;SDS011;11181;51.002;4.356;2023-04-24T09:36:39;9.17;;;2.93;;
22034;SDS011;11181;51.002;4.356;2023-04-24T09:39:09;8.20;;;3.90;;
22034;SDS011;11181;51.002;4.356;2023-04-24T09:41:43;6.00;;;2.83;;
22034;SDS011;11181;51.002;4.356;2023-04-24T09:44:11;5.43;;;3.83;;
22034;SDS011;11181;51.002;4.356;2023-04-24T09:46:40;5.90;;;2.40;;
22034;SDS011;11181;51.002;4.356;2023-04-24T09:49:08;12.43;;;3.93;;
22034;SDS011;11181;51.002;4.356;2023-04-24T09:51:37;6.60;;;3.03;;
22034;SDS011;11181;51.002;4.356;2023-04-24T09:54:13;7.67;;;3.63;;
22034;SDS011;11181;51.002;4.356;2023-04-24T09:56:42;5.13;;;2.53;;
22034;SDS011;11181;51.002;4.356;2023-04-24T09:59:11;6.07;;;3.13;;
22034;SDS011;11181;51.002;4.356;2023-04-24T10:01:38;7.20;;;2.70;;
22034;SDS011;11181;51.002;4.356;2023-04-24T10:04:14;5.17;;;2.90;;
22034;SDS011;11181;51.002;4.356;2023-04-24T10:06:43;9.53;;;3.60;;
22034;SDS011;11181;51.002;4.356;2023-04-24T10:09:11;10.10;;;4.03;;
22034;SDS011;11181;51.002;4.356;2023-04-24T10:11:41;10.50;;;4.53;;
22034;SDS011;11181;51.002;4.356;2023-04-24T10:14:09;7.33;;;3.40;;
22034;SDS011;11181;51.002;4.356;2023-04-24T10:16:37;7.63;;;3.50;;
22034;SDS011;11181;51.002;4.356;2023-04-24T10:19:05;10.93;;;3.00;;
22034;SDS011;11181;51.002;4.356;2023-04-24T10:21:32;7.07;;;3.60;;
22034;SDS011;11181;51.002;4.356;2023-04-24T10:24:01;4.93;;;3.60;;
22034;SDS011;11181;51.002;4.356;2023-04-24T10:26:31;10.93;;;3.53;;
22034;SDS011;11181;51.002;4.356;2023-04-24T10:28:58;8.47;;;3.30;;
22034;SDS011;11181;51.002;4.356;2023-04-24T10:31:25;8.53;;;3.57;;
22034;SDS011;11181;51.002;4.356;2023-04-24T10:33:53;10.83;;;3.47;;
22034;SDS011;11181;51.002;4.356;2023-04-24T10:36:21;9.23;;;3.40;;
22034;SDS011;11181;51.002;4.356;2023-04-24T10:38:51;8.00;;;3.30;;
22034;SDS011;11181;51.002;4.356;2023-04-24T10:41:21;6.70;;;3.27;;
22034;SDS011;11181;51.002;4.356;2023-04-24T10:44:05;9.13;;;3.40;;
22034;SDS011;11181;51.002;4.356;2023-04-24T10:46:32;9.07;;;3.43;;
22034;SDS011;11181;51.002;4.356;2023-04-24T10:49:00;12.30;;;3.10;;
22034;SDS011;11181;51.002;4.356;2023-04-24T10:54:23;6.70;;;3.13;;
22034;SDS011;11181;51.002;4.356;2023-04-24T10:56:51;8.93;;;3.23;;
22034;SDS011;11181;51.002;4.356;2023-04-24T10:59:26;10.07;;;3.07;;
22034;SDS011;11181;51.002;4.356;2023-04-24T11:02:02;5.93;;;2.80;;
22034;SDS011;11181;51.002;4.356;2023-04-24T11:04:33;5.17;;;2.73;;
22034;SDS011;11181;51.002;4.356;2023-04-24T11:07:00;4.67;;;2.80;;
22034;SDS011;11181;51.002;4.356;2023-04-24T11:09:30;4.90;;;2.60;;
22034;SDS011;11181;51.002;4.356;2023-04-24T11:12:04;4.07;;;2.53;;
22034;SDS011;11181;51.002;4.356;2023-04-24T11:17:31;3.90;;;2.33;;
22034;SDS011;11181;51.002;4.356;2023-04-24T11:20:02;4.30;;;2.90;;
22034;SDS011;11181;51.002;4.356;2023-04-24T11:22:32;5.00;;;3.50;;
22034;SDS011;11181;51.002;4.356;2023-04-24T11:25:01;5.57;;;3.57;;
22034;SDS011;11181;51.002;4.356;2023-04-24T11:27:29;5.70;;;2.70;;
22034;SDS011;11181;51.002;4.356;2023-04-24T11:29:59;7.53;;;3.33;;
22034;SDS011;11181;51.002;4.356;2023-04-24T11:32:29;5.77;;;3.20;;
22034;SDS011;11181;51.002;4.356;2023-04-24T11:34:57;8.67;;;2.90;;
22034;SDS011;11181;51.002;4.356;2023-04-24T11:37:26;5.27;;;3.00;;
22034;SDS011;11181;51.002;4.356;2023-04-24T11:39:54;4.20;;;2.83;;
22034;SDS011;11181;51.002;4.356;2023-04-24T11:42:22;5.80;;;2.70;;
22034;SDS011;11181;51.002;4.356;2023-04-24T11:44:51;10.43;;;4.37;;
22034;SDS011;11181;51.002;4.356;2023-04-24T11:47:21;5.03;;;3.00;;
22034;SDS011;11181;51.002;4.356;2023-04-24T11:49:54;6.27;;;2.83;;
22034;SDS011;11181;51.002;4.356;2023-04-24T11:52:21;8.37;;;3.30;;
22034;SDS011;11181;51.002;4.356;2023-04-24T11:54:48;9.20;;;3.67;;
22034;SDS011;11181;51.002;4.356;2023-04-24T11:57:16;8.80;;;3.47;;
22034;SDS011;11181;51.002;4.356;2023-04-24T11:59:45;8.80;;;3.40;;
22034;SDS011;11181;51.002;4.356;2023-04-24T12:02:19;5.27;;;3.60;;
22034;SDS011;11181;51.002;4.356;2023-04-24T12:04:49;5.50;;;3.20;;
22034;SDS011;11181;51.002;4.356;2023-04-24T12:07:16;4.57;;;2.93;;
22034;SDS011;11181;51.002;4.356;2023-04-24T12:09:43;6.87;;;3.03;;
22034;SDS011;11181;51.002;4.356;2023-04-24T12:12:12;5.10;;;2.70;;
22034;SDS011;11181;51.002;4.356;2023-04-24T12:14:43;5.37;;;2.83;;
22034;SDS011;11181;51.002;4.356;2023-04-24T12:17:11;6.63;;;2.63;;
22034;SDS011;11181;51.002;4.356;2023-04-24T12:19:44;6.30;;;2.50;;
22034;SDS011;11181;51.002;4.356;2023-04-24T12:22:12;4.73;;;3.00;;
22034;SDS011;11181;51.002;4.356;2023-04-24T12:27:22;6.50;;;2.93;;
22034;SDS011;11181;51.002;4.356;2023-04-24T12:29:52;4.23;;;2.33;;
22034;SDS011;11181;51.002;4.356;2023-04-24T12:32:19;4.47;;;2.47;;
22034;SDS011;11181;51.002;4.356;2023-04-24T12:34:48;7.90;;;2.97;;
22034;SDS011;11181;51.002;4.356;2023-04-24T12:37:16;8.63;;;2.77;;
22034;SDS011;11181;51.002;4.356;2023-04-24T12:39:44;3.33;;;2.83;;
22034;SDS011;11181;51.002;4.356;2023-04-24T12:42:25;6.77;;;4.00;;
22034;SDS011;11181;51.002;4.356;2023-04-24T12:44:56;7.67;;;2.70;;
22034;SDS011;11181;51.002;4.356;2023-04-24T12:47:24;5.07;;;3.03;;
22034;SDS011;11181;51.002;4.356;2023-04-24T12:49:53;6.67;;;3.40;;
22034;SDS011;11181;51.002;4.356;2023-04-24T12:52:20;7.57;;;3.30;;
22034;SDS011;11181;51.002;4.356;2023-04-24T12:54:48;3.63;;;2.97;;
22034;SDS011;11181;51.002;4.356;2023-04-24T12:57:16;6.47;;;2.60;;
22034;SDS011;11181;51.002;4.356;2023-04-24T12:59:43;6.23;;;3.83;;
22034;SDS011;11181;51.002;4.356;2023-04-24T13:02:10;5.03;;;3.10;;
22034;SDS011;11181;51.002;4.356;2023-04-24T13:04:37;7.47;;;2.77;;
22034;SDS011;11181;51.002;4.356;2023-04-24T13:07:06;5.20;;;2.57;;
22034;SDS011;11181;51.002;4.356;2023-04-24T13:09:34;4.23;;;2.10;;
22034;SDS011;11181;51.002;4.356;2023-04-24T13:12:01;4.20;;;2.07;;
22034;SDS011;11181;51.002;4.356;2023-04-24T13:14:30;5.73;;;2.30;;
22034;SDS011;11181;51.002;4.356;2023-04-24T13:16:57;2.93;;;2.07;;
22034;SDS011;11181;51.002;4.356;2023-04-24T13:19:24;6.13;;;2.07;;
22034;SDS011;11181;51.002;4.356;2023-04-24T13:21:52;3.80;;;2.20;;
22034;SDS011;11181;51.002;4.356;2023-04-24T13:24:20;3.00;;;1.60;;
22034;SDS011;11181;51.002;4.356;2023-04-24T13:26:49;4.00;;;2.00;;
22034;SDS011;11181;51.002;4.356;2023-04-24T13:29:16;2.97;;;1.90;;
22034;SDS011;11181;51.002;4.356;2023-04-24T13:31:43;2.73;;;1.70;;
22034;SDS011;11181;51.002;4.356;2023-04-24T13:34:10;3.47;;;1.60;;
22034;SDS011;11181;51.002;4.356;2023-04-24T13:36:37;3.97;;;2.10;;
22034;SDS011;11181;51.002;4.356;2023-04-24T13:39:04;4.87;;;1.70;;
22034;SDS011;11181;51.002;4.356;2023-04-24T13:41:33;2.20;;;1.33;;
22034;SDS011;11181;51.002;4.356;2023-04-24T13:44:01;2.57;;;1.30;;
22034;SDS011;11181;51.002;4.356;2023-04-24T13:46:28;5.40;;;2.30;;
22034;SDS011;11181;51.002;4.356;2023-04-24T13:48:55;2.10;;;1.40;;
22034;SDS011;11181;51.002;4.356;2023-04-24T13:51:23;4.30;;;1.77;;
22034;SDS011;11181;51.002;4.356;2023-04-24T13:53:52;6.23;;;2.13;;
22034;SDS011;11181;51.002;4.356;2023-04-24T13:56:18;4.10;;;1.73;;
22034;SDS011;11181;51.002;4.356;2023-04-24T13:58:47;6.10;;;2.80;;
22034;SDS011;11181;51.002;4.356;2023-04-24T14:01:15;3.13;;;1.70;;
22034;SDS011;11181;51.002;4.356;2023-04-24T14:03:42;3.93;;;2.20;;
22034;SDS011;11181;51.002;4.356;2023-04-24T14:06:09;4.97;;;2.30;;
22034;SDS011;11181;51.002;4.356;2023-04-24T14:08:36;6.50;;;3.43;;
22034;SDS011;11181;51.002;4.356;2023-04-24T14:11:03;3.93;;;2.37;;
22034;SDS011;11181;51.002;4.356;2023-04-24T14:13:30;5.87;;;2.30;;
22034;SDS011;11181;51.002;4.356;2023-04-24T14:15:59;3.50;;;2.10;;
22034;SDS011;11181;51.002;4.356;2023-04-24T14:18:26;6.10;;;2.47;;
22034;SDS011;11181;51.002;4.356;2023-04-24T14:20:53;5.30;;;2.73;;
22034;SDS011;11181;51.002;4.356;2023-04-24T14:23:20;3.87;;;2.40;;
22034;SDS011;11181;51.002;4.356;2023-04-24T14:25:47;4.57;;;2.30;;
22034;SDS011;11181;51.002;4.356;2023-04-24T14:28:17;3.40;;;1.70;;
22034;SDS011;11181;51.002;4.356;2023-04-24T14:30:45;2.93;;;1.53;;
22034;SDS011;11181;51.002;4.356;2023-04-24T14:33:13;2.47;;;1.80;;
22034;SDS011;11181;51.002;4.356;2023-04-24T14:35:40;3.37;;;1.87;;
22034;SDS011;11181;51.002;4.356;2023-04-24T14:38:08;5.70;;;2.20;;
22034;SDS011;11181;51.002;4.356;2023-04-24T14:40:36;5.30;;;2.17;;
22034;SDS011;11181;51.002;4.356;2023-04-24T14:43:03;3.40;;;2.43;;
22034;SDS011;11181;51.002;4.356;2023-04-24T14:45:30;5.03;;;3.53;;
22034;SDS011;11181;51.002;4.356;2023-04-24T14:47:57;4.57;;;2.80;;
22034;SDS011;11181;51.002;4.356;2023-04-24T14:50:25;5.33;;;3.17;;